sensor_id;sensor_type;location;lat;lon;timestamp;pressure;altitude;pressure_sealevel;temperature;humidity
55315;BME280;41619;42.816;23.226;2023-06-04T00:01:07;95655.19;;;15.80;78.31
55315;BME280;41619;42.816;23.226;2023-06-04T00:03:34;95657.59;;;15.81;78.37
55315;BME280;41619;42.816;23.226;2023-06-04T00:05:59;95661.53;;;15.84;78.47
55315;BME280;41619;42.816;23.226;2023-06-04T00:08:25;95666.66;;;15.85;78.55
55315;BME280;41619;42.816;23.226;2023-06-04T00:10:51;95664.69;;;15.86;78.54
55315;BME280;41619;42.816;23.226;2023-06-04T00:13:16;95659.16;;;15.86;78.49
55315;BME280;41619;42.816;23.226;2023-06-04T00:15:42;95651.28;;;15.88;78.53
55315;BME280;41619;42.816;23.226;2023-06-04T00:18:07;95654.03;;;15.91;78.37
55315;BME280;41619;42.816;23.226;2023-06-04T00:20:32;95661.13;;;15.92;78.66
55315;BME280;41619;42.816;23.226;2023-06-04T00:22:58;95657.19;;;15.93;78.54
55315;BME280;41619;42.816;23.226;2023-06-04T00:25:23;95657.97;;;15.94;78.65
55315;BME280;41619;42.816;23.226;2023-06-04T00:27:48;95654.03;;;15.91;78.82
55315;BME280;41619;42.816;23.226;2023-06-04T00:30:14;95652.06;;;15.88;78.82
55315;BME280;41619;42.816;23.226;2023-06-04T00:32:40;95645.34;;;15.86;78.88
55315;BME280;41619;42.816;23.226;2023-06-04T00:35:06;95648.53;;;15.81;78.99
55315;BME280;41619;42.816;23.226;2023-06-04T00:37:31;95644.56;;;15.78;79.06
55315;BME280;41619;42.816;23.226;2023-06-04T00:39:56;95652.03;;;15.74;79.29
55315;BME280;41619;42.816;23.226;2023-06-04T00:42:23;95655.22;;;15.69;79.14
55315;BME280;41619;42.816;23.226;2023-06-04T00:44:48;95652.44;;;15.65;79.37
55315;BME280;41619;42.816;23.226;2023-06-04T00:47:15;95654.41;;;15.61;79.55
55315;BME280;41619;42.816;23.226;2023-06-04T00:49:41;95654.38;;;15.58;79.60
55315;BME280;41619;42.816;23.226;2023-06-04T00:52:10;95649.63;;;15.55;79.72
55315;BME280;41619;42.816;23.226;2023-06-04T00:54:38;95643.34;;;15.54;79.61
55315;BME280;41619;42.816;23.226;2023-06-04T00:57:04;95640.19;;;15.52;79.61
55315;BME280;41619;42.816;23.226;2023-06-04T00:59:32;95643.34;;;15.51;79.75
55315;BME280;41619;42.816;23.226;2023-06-04T01:02:17;95637.03;;;15.47;79.67
55315;BME280;41619;42.816;23.226;2023-06-04T01:07:26;95647.63;;;15.37;79.61
55315;BME280;41619;42.816;23.226;2023-06-04T01:09:53;95641.72;;;15.35;79.82
55315;BME280;41619;42.816;23.226;2023-06-04T01:12:18;95651.97;;;15.35;79.79
55315;BME280;41619;42.816;23.226;2023-06-04T01:14:44;95654.34;;;15.29;79.62
55315;BME280;41619;42.816;23.226;2023-06-04T01:17:25;95651.53;;;15.22;79.86
55315;BME280;41619;42.816;23.226;2023-06-04T01:24:55;95651.91;;;15.06;79.85
55315;BME280;41619;42.816;23.226;2023-06-04T01:27:22;95653.84;;;15.02;79.83
55315;BME280;41619;42.816;23.226;2023-06-04T01:29:48;95645.19;;;15.00;79.85
55315;BME280;41619;42.816;23.226;2023-06-04T01:32:16;95657.00;;;15.04;80.20
55315;BME280;41619;42.816;23.226;2023-06-04T01:34:45;95657.78;;;15.05;79.81
55315;BME280;41619;42.816;23.226;2023-06-04T01:37:11;95653.84;;;15.06;79.94
55315;BME280;41619;42.816;23.226;2023-06-04T01:39:37;95661.78;;;15.11;80.17
55315;BME280;41619;42.816;23.226;2023-06-04T01:42:03;95667.69;;;15.13;80.05
55315;BME280;41619;42.816;23.226;2023-06-04T01:44:28;95664.53;;;15.14;79.92
55315;BME280;41619;42.816;23.226;2023-06-04T01:46:54;95662.97;;;15.17;80.05
55315;BME280;41619;42.816;23.226;2023-06-04T01:49:19;95666.09;;;15.19;79.87
55315;BME280;41619;42.816;23.226;2023-06-04T01:51:45;95679.13;;;15.22;79.93
55315;BME280;41619;42.816;23.226;2023-06-04T01:54:10;95671.66;;;15.26;79.92
55315;BME280;41619;42.816;23.226;2023-06-04T01:56:35;95679.94;;;15.26;79.85
55315;BME280;41619;42.816;23.226;2023-06-04T01:59:01;95674.81;;;15.28;79.96
55315;BME280;41619;42.816;23.226;2023-06-04T02:01:27;95682.31;;;15.31;80.10
55315;BME280;41619;42.816;23.226;2023-06-04T02:03:52;95676.00;;;15.31;80.02
55315;BME280;41619;42.816;23.226;2023-06-04T02:06:18;95669.31;;;15.32;79.94
55315;BME280;41619;42.816;23.226;2023-06-04T02:08:43;95676.00;;;15.31;80.04
55315;BME280;41619;42.816;23.226;2023-06-04T02:11:09;95678.75;;;15.34;79.92
55315;BME280;41619;42.816;23.226;2023-06-04T02:13:34;95675.59;;;15.36;79.93
55315;BME280;41619;42.816;23.226;2023-06-04T02:16:01;95684.28;;;15.38;79.85
55315;BME280;41619;42.816;23.226;2023-06-04T02:18:26;95679.56;;;15.38;79.92
55315;BME280;41619;42.816;23.226;2023-06-04T02:20:51;95690.97;;;15.40;79.90
55315;BME280;41619;42.816;23.226;2023-06-04T02:23:19;95686.25;;;15.41;79.90
55315;BME280;41619;42.816;23.226;2023-06-04T02:25:45;95699.66;;;15.42;79.91
55315;BME280;41619;42.816;23.226;2023-06-04T02:28:11;95703.59;;;15.41;79.95
55315;BME280;41619;42.816;23.226;2023-06-04T02:30:37;95707.91;;;15.42;79.82
55315;BME280;41619;42.816;23.226;2023-06-04T02:33:02;95702.41;;;15.42;80.15
55315;BME280;41619;42.816;23.226;2023-06-04T02:35:29;95712.28;;;15.43;79.88
55315;BME280;41619;42.816;23.226;2023-06-04T02:37:55;95711.47;;;15.43;79.94
55315;BME280;41619;42.816;23.226;2023-06-04T02:40:24;95717.81;;;15.43;80.01
55315;BME280;41619;42.816;23.226;2023-06-04T02:42:51;95717.81;;;15.43;79.95
55315;BME280;41619;42.816;23.226;2023-06-04T02:45:17;95713.44;;;15.42;80.20
55315;BME280;41619;42.816;23.226;2023-06-04T02:47:42;95712.66;;;15.42;80.06
55315;BME280;41619;42.816;23.226;2023-06-04T02:50:08;95709.88;;;15.42;79.93
55315;BME280;41619;42.816;23.226;2023-06-04T02:52:33;95715.41;;;15.42;79.87
55315;BME280;41619;42.816;23.226;2023-06-04T02:55:03;95717.38;;;15.41;79.90
55315;BME280;41619;42.816;23.226;2023-06-04T02:57:29;95713.03;;;15.40;79.71
55315;BME280;41619;42.816;23.226;2023-06-04T02:59:55;95714.22;;;15.39;79.84
55315;BME280;41619;42.816;23.226;2023-06-04T03:02:21;95719.75;;;15.39;79.79
55315;BME280;41619;42.816;23.226;2023-06-04T03:04:46;95725.25;;;15.39;80.09
55315;BME280;41619;42.816;23.226;2023-06-04T03:07:16;95728.81;;;15.40;79.68
55315;BME280;41619;42.816;23.226;2023-06-04T03:09:46;95726.44;;;15.42;79.86
55315;BME280;41619;42.816;23.226;2023-06-04T03:12:12;95726.47;;;15.45;79.68
55315;BME280;41619;42.816;23.226;2023-06-04T03:14:37;95735.94;;;15.44;79.80
55315;BME280;41619;42.816;23.226;2023-06-04T03:17:03;95730.38;;;15.41;79.63
55315;BME280;41619;42.816;23.226;2023-06-04T03:19:41;95734.31;;;15.36;79.40
55315;BME280;41619;42.816;23.226;2023-06-04T03:22:08;95728.78;;;15.36;79.46
55315;BME280;41619;42.816;23.226;2023-06-04T03:24:38;95737.06;;;15.36;79.45
55315;BME280;41619;42.816;23.226;2023-06-04T03:27:05;95736.28;;;15.36;79.69
55315;BME280;41619;42.816;23.226;2023-06-04T03:29:34;95744.16;;;15.37;79.80
55315;BME280;41619;42.816;23.226;2023-06-04T03:32:00;95739.84;;;15.40;79.78
55315;BME280;41619;42.816;23.226;2023-06-04T03:34:26;95739.84;;;15.40;79.77
55315;BME280;41619;42.816;23.226;2023-06-04T03:36:55;95743.38;;;15.40;80.03
55315;BME280;41619;42.816;23.226;2023-06-04T03:39:21;95747.31;;;15.39;80.25
55315;BME280;41619;42.816;23.226;2023-06-04T03:41:47;95746.13;;;15.40;80.21
55315;BME280;41619;42.816;23.226;2023-06-04T03:44:13;95748.91;;;15.40;80.44
55315;BME280;41619;42.816;23.226;2023-06-04T03:46:39;95750.88;;;15.40;80.74
55315;BME280;41619;42.816;23.226;2023-06-04T03:49:05;95750.47;;;15.41;80.85
55315;BME280;41619;42.816;23.226;2023-06-04T03:51:30;95750.47;;;15.41;80.77
55315;BME280;41619;42.816;23.226;2023-06-04T03:53:57;95759.97;;;15.44;80.98
55315;BME280;41619;42.816;23.226;2023-06-04T03:56:22;95753.66;;;15.47;80.87
55315;BME280;41619;42.816;23.226;2023-06-04T03:58:48;95753.28;;;15.49;81.11
55315;BME280;41619;42.816;23.226;2023-06-04T04:01:13;95755.63;;;15.50;81.17
55315;BME280;41619;42.816;23.226;2023-06-04T04:03:39;95753.66;;;15.51;81.27
55315;BME280;41619;42.816;23.226;2023-06-04T04:06:05;95756.03;;;15.52;81.40
55315;BME280;41619;42.816;23.226;2023-06-04T04:08:30;95758.41;;;15.54;81.45
55315;BME280;41619;42.816;23.226;2023-06-04T04:11:00;95758.00;;;15.55;81.51
55315;BME280;41619;42.816;23.226;2023-06-04T04:13:25;95763.13;;;15.57;81.43
55315;BME280;41619;42.816;23.226;2023-06-04T04:15:50;95765.13;;;15.60;81.42
55315;BME280;41619;42.816;23.226;2023-06-04T04:18:21;95767.94;;;15.63;81.42
55315;BME280;41619;42.816;23.226;2023-06-04T04:20:47;95768.72;;;15.64;81.49
55315;BME280;41619;42.816;23.226;2023-06-04T04:23:13;95771.47;;;15.64;81.33
55315;BME280;41619;42.816;23.226;2023-06-04T04:25:38;95773.41;;;15.60;81.40
55315;BME280;41619;42.816;23.226;2023-06-04T04:28:04;95772.19;;;15.57;81.39
55315;BME280;41619;42.816;23.226;2023-06-04T04:30:36;95767.47;;;15.58;80.97
55315;BME280;41619;42.816;23.226;2023-06-04T04:33:02;95778.50;;;15.58;81.47
55315;BME280;41619;42.816;23.226;2023-06-04T04:35:30;95773.38;;;15.56;81.53
55315;BME280;41619;42.816;23.226;2023-06-04T04:37:58;95777.31;;;15.55;81.65
55315;BME280;41619;42.816;23.226;2023-06-04T04:40:23;95769.44;;;15.57;81.63
55315;BME280;41619;42.816;23.226;2023-06-04T04:42:48;95772.59;;;15.56;81.69
55315;BME280;41619;42.816;23.226;2023-06-04T04:45:14;95775.75;;;15.54;81.58
55315;BME280;41619;42.816;23.226;2023-06-04T04:47:39;95775.34;;;15.52;81.52
55315;BME280;41619;42.816;23.226;2023-06-04T04:50:05;95774.16;;;15.53;81.51
55315;BME280;41619;42.816;23.226;2023-06-04T04:52:31;95781.25;;;15.54;81.51
55315;BME280;41619;42.816;23.226;2023-06-04T04:54:56;95772.59;;;15.56;81.40
55315;BME280;41619;42.816;23.226;2023-06-04T04:57:26;95768.25;;;15.55;81.40
55315;BME280;41619;42.816;23.226;2023-06-04T04:59:51;95776.53;;;15.55;81.14
55315;BME280;41619;42.816;23.226;2023-06-04T05:02:17;95772.97;;;15.54;81.17
55315;BME280;41619;42.816;23.226;2023-06-04T05:04:42;95776.91;;;15.53;80.96
55315;BME280;41619;42.816;23.226;2023-06-04T05:07:08;95787.56;;;15.55;81.10
55315;BME280;41619;42.816;23.226;2023-06-04T05:09:33;95786.38;;;15.56;81.07
55315;BME280;41619;42.816;23.226;2023-06-04T05:11:58;95783.22;;;15.57;80.93
55315;BME280;41619;42.816;23.226;2023-06-04T05:14:24;95781.69;;;15.60;80.87
55315;BME280;41619;42.816;23.226;2023-06-04T05:16:49;95787.22;;;15.60;80.81
55315;BME280;41619;42.816;23.226;2023-06-04T05:19:16;95785.25;;;15.60;80.83
55315;BME280;41619;42.816;23.226;2023-06-04T05:21:42;95787.63;;;15.62;80.74
55315;BME280;41619;42.816;23.226;2023-06-04T05:24:09;95790.41;;;15.62;80.73
55315;BME280;41619;42.816;23.226;2023-06-04T05:26:35;95788.44;;;15.62;80.75
55315;BME280;41619;42.816;23.226;2023-06-04T05:29:00;95790.78;;;15.64;80.51
55315;BME280;41619;42.816;23.226;2023-06-04T05:31:27;95796.72;;;15.66;80.45
55315;BME280;41619;42.816;23.226;2023-06-04T05:33:52;95794.34;;;15.68;80.55
55315;BME280;41619;42.816;23.226;2023-06-04T05:36:18;95791.97;;;15.70;80.56
55315;BME280;41619;42.816;23.226;2023-06-04T05:38:44;95793.97;;;15.73;80.57
55315;BME280;41619;42.816;23.226;2023-06-04T05:41:09;95788.44;;;15.77;80.26
55315;BME280;41619;42.816;23.226;2023-06-04T05:43:35;95798.34;;;15.81;80.37
55315;BME280;41619;42.816;23.226;2023-06-04T05:46:00;95806.22;;;15.86;80.27
55315;BME280;41619;42.816;23.226;2023-06-04T05:48:25;95805.03;;;15.91;80.26
55315;BME280;41619;42.816;23.226;2023-06-04T05:50:51;95799.53;;;15.94;80.20
55315;BME280;41619;42.816;23.226;2023-06-04T05:53:16;95803.06;;;15.98;79.91
55315;BME280;41619;42.816;23.226;2023-06-04T05:55:42;95807.84;;;16.01;80.23
55315;BME280;41619;42.816;23.226;2023-06-04T05:58:07;95809.03;;;16.04;79.72
55315;BME280;41619;42.816;23.226;2023-06-04T06:00:33;95818.50;;;16.07;79.66
55315;BME280;41619;42.816;23.226;2023-06-04T06:02:58;95814.16;;;16.09;79.73
55315;BME280;41619;42.816;23.226;2023-06-04T06:05:23;95818.50;;;16.14;79.54
55315;BME280;41619;42.816;23.226;2023-06-04T06:07:49;95815.38;;;16.19;79.37
55315;BME280;41619;42.816;23.226;2023-06-04T06:10:15;95823.25;;;16.24;79.21
55315;BME280;41619;42.816;23.226;2023-06-04T06:12:40;95829.97;;;16.26;79.43
55315;BME280;41619;42.816;23.226;2023-06-04T06:15:06;95826.78;;;16.31;79.07
55315;BME280;41619;42.816;23.226;2023-06-04T06:17:32;95830.34;;;16.35;79.15
55315;BME280;41619;42.816;23.226;2023-06-04T06:20:01;95831.94;;;16.37;78.94
55315;BME280;41619;42.816;23.226;2023-06-04T06:22:29;95841.03;;;16.41;78.95
55315;BME280;41619;42.816;23.226;2023-06-04T06:24:55;95835.09;;;16.42;79.03
55315;BME280;41619;42.816;23.226;2023-06-04T06:27:20;95829.97;;;16.44;78.61
55315;BME280;41619;42.816;23.226;2023-06-04T06:29:46;95826.03;;;16.45;78.72
55315;BME280;41619;42.816;23.226;2023-06-04T06:32:11;95831.16;;;16.47;78.53
55315;BME280;41619;42.816;23.226;2023-06-04T06:34:36;95831.16;;;16.50;78.38
55315;BME280;41619;42.816;23.226;2023-06-04T06:37:06;95837.09;;;16.56;78.29
55315;BME280;41619;42.816;23.226;2023-06-04T06:39:32;95833.53;;;16.59;78.30
55315;BME280;41619;42.816;23.226;2023-06-04T06:41:57;95830.38;;;16.64;78.20
55315;BME280;41619;42.816;23.226;2023-06-04T06:44:23;95835.53;;;16.69;78.38
55315;BME280;41619;42.816;23.226;2023-06-04T06:46:48;95835.94;;;16.75;77.78
55315;BME280;41619;42.816;23.226;2023-06-04T06:49:14;95839.47;;;16.86;77.80
55315;BME280;41619;42.816;23.226;2023-06-04T06:51:40;95833.94;;;16.93;77.27
55315;BME280;41619;42.816;23.226;2023-06-04T06:54:05;95833.53;;;16.98;77.01
55315;BME280;41619;42.816;23.226;2023-06-04T06:56:31;95838.63;;;17.07;77.13
55315;BME280;41619;42.816;23.226;2023-06-04T06:58:56;95841.41;;;17.14;77.02
55315;BME280;41619;42.816;23.226;2023-06-04T07:01:22;95841.00;;;17.22;76.66
55315;BME280;41619;42.816;23.226;2023-06-04T07:03:47;95840.59;;;17.31;76.52
55315;BME280;41619;42.816;23.226;2023-06-04T07:06:12;95842.13;;;17.39;76.25
55315;BME280;41619;42.816;23.226;2023-06-04T07:08:39;95840.91;;;17.47;76.10
55315;BME280;41619;42.816;23.226;2023-06-04T07:11:04;95847.22;;;17.55;75.85
55315;BME280;41619;42.816;23.226;2023-06-04T07:13:30;95846.41;;;17.62;75.56
55315;BME280;41619;42.816;23.226;2023-06-04T07:16:00;95849.97;;;17.69;75.24
55315;BME280;41619;42.816;23.226;2023-06-04T07:18:25;95851.91;;;17.76;75.04
55315;BME280;41619;42.816;23.226;2023-06-04T07:20:51;95855.44;;;17.83;74.75
55315;BME280;41619;42.816;23.226;2023-06-04T07:23:18;95849.09;;;17.90;74.56
55315;BME280;41619;42.816;23.226;2023-06-04T07:25:43;95850.63;;;17.98;74.10
55315;BME280;41619;42.816;23.226;2023-06-04T07:28:08;95857.28;;;18.11;73.92
55315;BME280;41619;42.816;23.226;2023-06-04T07:30:34;95859.56;;;18.27;73.82
55315;BME280;41619;42.816;23.226;2023-06-04T07:32:59;95863.44;;;18.44;73.52
55315;BME280;41619;42.816;23.226;2023-06-04T07:35:25;95855.41;;;18.57;73.10
55315;BME280;41619;42.816;23.226;2023-06-04T07:37:51;95860.84;;;18.74;72.85
55315;BME280;41619;42.816;23.226;2023-06-04T07:40:16;95853.56;;;18.91;72.42
55315;BME280;41619;42.816;23.226;2023-06-04T07:42:42;95853.38;;;19.13;72.00
55315;BME280;41619;42.816;23.226;2023-06-04T07:45:08;95867.06;;;19.34;71.28
55315;BME280;41619;42.816;23.226;2023-06-04T07:47:35;95864.88;;;19.52;70.43
55315;BME280;41619;42.816;23.226;2023-06-04T07:50:01;95855.91;;;19.75;69.91
55315;BME280;41619;42.816;23.226;2023-06-04T07:52:26;95860.38;;;20.00;69.17
55315;BME280;41619;42.816;23.226;2023-06-04T07:54:52;95867.91;;;20.30;68.76
55315;BME280;41619;42.816;23.226;2023-06-04T07:57:17;95874.59;;;20.63;68.13
55315;BME280;41619;42.816;23.226;2023-06-04T07:59:43;95871.03;;;20.89;67.04
55315;BME280;41619;42.816;23.226;2023-06-04T08:02:08;95879.44;;;21.09;66.31
55315;BME280;41619;42.816;23.226;2023-06-04T08:04:33;95873.63;;;21.23;65.74
55315;BME280;41619;42.816;23.226;2023-06-04T08:06:59;95875.03;;;21.35;65.37
55315;BME280;41619;42.816;23.226;2023-06-04T08:09:25;95880.00;;;21.47;64.98
55315;BME280;41619;42.816;23.226;2023-06-04T08:11:50;95870.09;;;21.66;64.31
55315;BME280;41619;42.816;23.226;2023-06-04T08:14:16;95874.53;;;21.83;64.37
55315;BME280;41619;42.816;23.226;2023-06-04T08:16:41;95869.03;;;21.99;64.05
55315;BME280;41619;42.816;23.226;2023-06-04T08:19:07;95866.59;;;22.21;62.89
55315;BME280;41619;42.816;23.226;2023-06-04T08:21:33;95874.06;;;22.44;62.37
55315;BME280;41619;42.816;23.226;2023-06-04T08:23:59;95875.13;;;22.66;61.59
55315;BME280;41619;42.816;23.226;2023-06-04T08:26:25;95870.00;;;22.81;61.13
55315;BME280;41619;42.816;23.226;2023-06-04T08:28:52;95872.25;;;22.90;60.83
55315;BME280;41619;42.816;23.226;2023-06-04T08:31:18;95869.09;;;22.88;60.31
55315;BME280;41619;42.816;23.226;2023-06-04T08:33:46;95865.25;;;22.82;60.14
55315;BME280;41619;42.816;23.226;2023-06-04T08:36:12;95871.13;;;22.87;59.76
55315;BME280;41619;42.816;23.226;2023-06-04T08:38:37;95870.16;;;22.94;59.45
55315;BME280;41619;42.816;23.226;2023-06-04T08:41:16;95880.53;;;22.93;58.61
55315;BME280;41619;42.816;23.226;2023-06-04T08:43:43;95875.47;;;22.88;58.54
55315;BME280;41619;42.816;23.226;2023-06-04T08:46:12;95876.94;;;22.93;57.77
55315;BME280;41619;42.816;23.226;2023-06-04T08:48:39;95877.84;;;23.06;57.88
55315;BME280;41619;42.816;23.226;2023-06-04T08:51:06;95877.91;;;23.19;57.57
55315;BME280;41619;42.816;23.226;2023-06-04T08:53:34;95885.47;;;23.35;56.40
55315;BME280;41619;42.816;23.226;2023-06-04T08:55:59;95882.53;;;23.25;56.04
55315;BME280;41619;42.816;23.226;2023-06-04T08:58:26;95889.34;;;23.24;56.28
55315;BME280;41619;42.816;23.226;2023-06-04T09:00:53;95883.03;;;23.20;56.02
55315;BME280;41619;42.816;23.226;2023-06-04T09:03:19;95895.28;;;23.10;56.25
55315;BME280;41619;42.816;23.226;2023-06-04T09:05:47;95890.63;;;23.04;55.63
55315;BME280;41619;42.816;23.226;2023-06-04T09:08:17;95883.91;;;23.01;55.67
55315;BME280;41619;42.816;23.226;2023-06-04T09:10:44;95882.69;;;23.02;55.39
55315;BME280;41619;42.816;23.226;2023-06-04T09:13:12;95896.59;;;23.06;55.09
55315;BME280;41619;42.816;23.226;2023-06-04T09:15:38;95890.72;;;23.00;54.99
55315;BME280;41619;42.816;23.226;2023-06-04T09:18:04;95891.66;;;22.77;54.82
55315;BME280;41619;42.816;23.226;2023-06-04T09:20:29;95891.25;;;22.59;55.11
55315;BME280;41619;42.816;23.226;2023-06-04T09:22:54;95888.13;;;22.57;55.74
55315;BME280;41619;42.816;23.226;2023-06-04T09:25:22;95889.34;;;22.56;55.51
55315;BME280;41619;42.816;23.226;2023-06-04T09:27:48;95891.94;;;22.47;55.28
55315;BME280;41619;42.816;23.226;2023-06-04T09:30:14;95884.13;;;22.58;55.23
55315;BME280;41619;42.816;23.226;2023-06-04T09:32:39;95887.94;;;22.64;55.38
55315;BME280;41619;42.816;23.226;2023-06-04T09:35:13;95884.50;;;22.76;55.25
55315;BME280;41619;42.816;23.226;2023-06-04T09:37:40;95881.63;;;22.80;55.40
55315;BME280;41619;42.816;23.226;2023-06-04T09:40:07;95876.16;;;22.92;55.23
55315;BME280;41619;42.816;23.226;2023-06-04T09:42:46;95877.66;;;23.13;54.79
55315;BME280;41619;42.816;23.226;2023-06-04T09:45:34;95885.47;;;23.35;53.59
55315;BME280;41619;42.816;23.226;2023-06-04T09:48:01;95883.09;;;23.49;53.15
55315;BME280;41619;42.816;23.226;2023-06-04T09:50:29;95879.88;;;23.51;52.77
55315;BME280;41619;42.816;23.226;2023-06-04T09:52:55;95880.13;;;23.56;52.42
55315;BME280;41619;42.816;23.226;2023-06-04T09:55:22;95886.03;;;23.75;52.43
55315;BME280;41619;42.816;23.226;2023-06-04T09:57:48;95883.28;;;23.88;52.23
55315;BME280;41619;42.816;23.226;2023-06-04T10:00:19;95892.69;;;23.81;51.52
55315;BME280;41619;42.816;23.226;2023-06-04T10:02:46;95881.56;;;23.77;52.03
55315;BME280;41619;42.816;23.226;2023-06-04T10:05:13;95884.47;;;23.74;51.22
55315;BME280;41619;42.816;23.226;2023-06-04T10:07:43;95884.31;;;23.48;50.86
55315;BME280;41619;42.816;23.226;2023-06-04T10:10:15;95881.31;;;23.26;51.55
55315;BME280;41619;42.816;23.226;2023-06-04T10:12:42;95881.66;;;23.29;51.93
55315;BME280;41619;42.816;23.226;2023-06-04T10:15:12;95880.59;;;23.22;51.48
55315;BME280;41619;42.816;23.226;2023-06-04T10:17:39;95879.22;;;23.31;51.36
55315;BME280;41619;42.816;23.226;2023-06-04T10:20:05;95884.50;;;23.41;51.34
55315;BME280;41619;42.816;23.226;2023-06-04T10:22:33;95884.13;;;23.55;51.13
55315;BME280;41619;42.816;23.226;2023-06-04T10:24:59;95872.84;;;23.75;50.82
55315;BME280;41619;42.816;23.226;2023-06-04T10:27:25;95878.50;;;23.88;50.96
55315;BME280;41619;42.816;23.226;2023-06-04T10:29:51;95866.69;;;24.09;50.94
55315;BME280;41619;42.816;23.226;2023-06-04T10:32:17;95876.75;;;24.07;50.39
55315;BME280;41619;42.816;23.226;2023-06-04T10:34:43;95875.41;;;24.11;50.77
55315;BME280;41619;42.816;23.226;2023-06-04T10:37:22;95871.44;;;24.25;50.24
55315;BME280;41619;42.816;23.226;2023-06-04T10:39:55;95877.53;;;24.36;50.21
55315;BME280;41619;42.816;23.226;2023-06-04T10:42:22;95872.72;;;24.50;49.93
55315;BME280;41619;42.816;23.226;2023-06-04T10:44:49;95873.19;;;24.61;49.44
55315;BME280;41619;42.816;23.226;2023-06-04T10:47:22;95877.09;;;24.63;49.12
55315;BME280;41619;42.816;23.226;2023-06-04T10:49:49;95867.94;;;24.75;48.83
55315;BME280;41619;42.816;23.226;2023-06-04T10:52:16;95870.38;;;24.86;48.79
55315;BME280;41619;42.816;23.226;2023-06-04T10:54:45;95869.50;;;25.02;48.30
55315;BME280;41619;42.816;23.226;2023-06-04T10:57:17;95876.66;;;25.16;48.33
55315;BME280;41619;42.816;23.226;2023-06-04T10:59:56;95866.44;;;25.22;48.08
55315;BME280;41619;42.816;23.226;2023-06-04T11:02:22;95883.63;;;25.11;47.26
55315;BME280;41619;42.816;23.226;2023-06-04T11:04:58;95866.81;;;24.73;47.96
55315;BME280;41619;42.816;23.226;2023-06-04T11:07:27;95870.81;;;24.72;48.29
55315;BME280;41619;42.816;23.226;2023-06-04T11:09:52;95869.06;;;24.78;48.10
55315;BME280;41619;42.816;23.226;2023-06-04T11:12:18;95862.97;;;24.54;48.07
55315;BME280;41619;42.816;23.226;2023-06-04T11:14:56;95864.44;;;24.46;47.95
55315;BME280;41619;42.816;23.226;2023-06-04T11:17:22;95864.56;;;24.55;48.13
55315;BME280;41619;42.816;23.226;2023-06-04T11:19:47;95866.00;;;24.72;47.94
55315;BME280;41619;42.816;23.226;2023-06-04T11:22:13;95874.75;;;24.87;47.60
55315;BME280;41619;42.816;23.226;2023-06-04T11:24:38;95867.00;;;24.91;47.35
55315;BME280;41619;42.816;23.226;2023-06-04T11:27:04;95865.69;;;24.96;47.13
55315;BME280;41619;42.816;23.226;2023-06-04T11:29:29;95861.19;;;24.98;47.32
55315;BME280;41619;42.816;23.226;2023-06-04T11:31:55;95864.66;;;24.90;47.08
55315;BME280;41619;42.816;23.226;2023-06-04T11:36:50;95869.38;;;24.67;47.17
55315;BME280;41619;42.816;23.226;2023-06-04T11:39:18;95858.06;;;24.45;47.83
55315;BME280;41619;42.816;23.226;2023-06-04T11:41:44;95853.88;;;24.25;47.84
55315;BME280;41619;42.816;23.226;2023-06-04T11:44:11;95854.63;;;24.12;48.23
55315;BME280;41619;42.816;23.226;2023-06-04T11:46:43;95856.97;;;24.01;48.03
55315;BME280;41619;42.816;23.226;2023-06-04T11:49:15;95852.56;;;23.88;48.70
55315;BME280;41619;42.816;23.226;2023-06-04T11:51:47;95852.75;;;23.80;48.57
55315;BME280;41619;42.816;23.226;2023-06-04T11:54:13;95863.13;;;23.80;48.16
55315;BME280;41619;42.816;23.226;2023-06-04T11:56:39;95855.91;;;23.82;48.54
55315;BME280;41619;42.816;23.226;2023-06-04T11:59:05;95858.81;;;23.92;49.12
55315;BME280;41619;42.816;23.226;2023-06-04T12:01:32;95854.91;;;23.89;48.96
55315;BME280;41619;42.816;23.226;2023-06-04T12:03:57;95846.72;;;23.82;48.51
55315;BME280;41619;42.816;23.226;2023-06-04T12:06:23;95861.09;;;23.68;48.79
55315;BME280;41619;42.816;23.226;2023-06-04T12:08:53;95858.19;;;23.55;49.27
55315;BME280;41619;42.816;23.226;2023-06-04T12:11:32;95872.81;;;23.46;49.55
55315;BME280;41619;42.816;23.226;2023-06-04T12:14:04;95868.38;;;23.33;49.90
55315;BME280;41619;42.816;23.226;2023-06-04T12:16:30;95868.13;;;23.27;50.19
55315;BME280;41619;42.816;23.226;2023-06-04T12:19:10;95873.72;;;23.27;50.33
55315;BME280;41619;42.816;23.226;2023-06-04T12:21:36;95864.34;;;23.34;50.10
55315;BME280;41619;42.816;23.226;2023-06-04T12:24:14;95857.72;;;23.44;49.74
55315;BME280;41619;42.816;23.226;2023-06-04T12:26:41;95867.91;;;23.50;49.84
55315;BME280;41619;42.816;23.226;2023-06-04T12:29:13;95866.44;;;23.62;49.53
55315;BME280;41619;42.816;23.226;2023-06-04T12:31:40;95861.44;;;23.70;49.46
55315;BME280;41619;42.816;23.226;2023-06-04T12:34:05;95869.91;;;23.66;49.55
55315;BME280;41619;42.816;23.226;2023-06-04T12:36:31;95868.59;;;23.54;49.84
55315;BME280;41619;42.816;23.226;2023-06-04T12:39:00;95863.31;;;23.44;49.71
55315;BME280;41619;42.816;23.226;2023-06-04T12:41:29;95863.84;;;23.22;49.77
55315;BME280;41619;42.816;23.226;2023-06-04T12:43:55;95870.06;;;23.14;49.96
55315;BME280;41619;42.816;23.226;2023-06-04T12:46:22;95856.28;;;23.07;50.41
55315;BME280;41619;42.816;23.226;2023-06-04T12:48:48;95860.19;;;22.93;50.54
55315;BME280;41619;42.816;23.226;2023-06-04T12:51:14;95853.72;;;22.80;50.65
55315;BME280;41619;42.816;23.226;2023-06-04T12:53:40;95853.97;;;22.69;50.73
55315;BME280;41619;42.816;23.226;2023-06-04T12:56:06;95858.50;;;22.63;50.75
55315;BME280;41619;42.816;23.226;2023-06-04T12:58:32;95855.09;;;22.55;51.24